Time;durP1;ratioP1;P1;durP2;ratioP2;P2;SDS_P1;SDS_P2;PMS_P1;PMS_P2;Temp;Humidity;BMP_temperature;BMP_pressure;BME280_temperature;BME280_humidity;BME280_pressure;Samples;Min_cycle;Max_cycle;Signal;HPM_P1;HPM_P2
2024/01/13 00:03:38;;;;;;;37.20;15.10;;;;;;;;;;10147308;29;20024;-83
2024/01/13 00:08:39;;;;;;;40.90;16.97;;;;;;;;;;10128020;29;20146;-85
2024/01/13 00:13:40;;;;;;;39.63;17.43;;;;;;;;;;10135346;29;20131;-84
2024/01/13 00:18:41;;;;;;;38.10;17.50;;;;;;;;;;10141274;29;20032;-83
2024/01/13 00:23:42;;;;;;;40.73;16.40;;;;;;;;;;10133001;29;20071;-84
2024/01/13 00:28:43;;;;;;;45.33;20.17;;;;;;;;;;10131796;29;20453;-84
2024/01/13 00:33:44;;;;;;;43.77;21.40;;;;;;;;;;10142140;29;20044;-83
2024/01/13 00:38:45;;;;;;;46.93;20.47;;;;;;;;;;10129525;29;20075;-83
2024/01/13 00:43:47;;;;;;;49.80;21.83;;;;;;;;;;10130640;29;20048;-85
2024/01/13 00:48:48;;;;;;;47.03;21.73;;;;;;;;;;10126904;29;20041;-83
2024/01/13 00:53:49;;;;;;;43.73;20.00;;;;;;;;;;10129374;29;20051;-83
2024/01/13 00:58:50;;;;;;;44.43;19.93;;;;;;;;;;10141823;29;20028;-83
2024/01/13 01:03:51;;;;;;;43.87;19.33;;;;;;;;;;10135802;29;20481;-85
2024/01/13 01:09:06;;;;;;;41.80;19.17;;;;;;;;;;10137013;29;20123;-85
2024/01/13 01:14:07;;;;;;;40.07;19.53;;;;;;;;;;10145223;29;20056;-82
2024/01/13 01:19:08;;;;;;;44.37;19.60;;;;;;;;;;10138416;29;20047;-83
2024/01/13 01:24:09;;;;;;;42.60;21.47;;;;;;;;;;10133893;29;20062;-83
2024/01/13 01:29:10;;;;;;;44.03;19.80;;;;;;;;;;10126570;29;20054;-83
2024/01/13 01:34:11;;;;;;;47.30;20.83;;;;;;;;;;10129335;29;20058;-83
2024/01/13 01:39:12;;;;;;;45.03;20.57;;;;;;;;;;10129051;29;20396;-83
2024/01/13 01:44:13;;;;;;;47.27;22.17;;;;;;;;;;10129423;29;20032;-83
2024/01/13 01:49:16;;;;;;;54.60;25.90;;;;;;;;;;10140064;29;20507;-82
2024/01/13 01:54:17;;;;;;;72.03;32.33;;;;;;;;;;10136535;29;20059;-85
2024/01/13 01:59:18;;;;;;;70.83;31.87;;;;;;;;;;10153486;29;20947;-83
2024/01/13 02:04:19;;;;;;;68.23;32.07;;;;;;;;;;10139372;29;20036;-83
2024/01/13 02:09:20;;;;;;;72.27;32.57;;;;;;;;;;10151329;29;20036;-82
2024/01/13 02:14:21;;;;;;;73.33;32.57;;;;;;;;;;10133862;29;20397;-83
2024/01/13 02:19:23;;;;;;;70.20;34.67;;;;;;;;;;10158907;29;20036;-84
2024/01/13 02:24:24;;;;;;;75.17;32.87;;;;;;;;;;10149234;29;20108;-84
2024/01/13 02:29:25;;;;;;;75.07;33.13;;;;;;;;;;10135978;29;20775;-81
2024/01/13 02:34:26;;;;;;;72.97;32.10;;;;;;;;;;10148670;29;20044;-80
2024/01/13 02:39:27;;;;;;;64.03;30.50;;;;;;;;;;10148634;29;20055;-83
2024/01/13 02:44:28;;;;;;;54.37;27.90;;;;;;;;;;10131207;29;20123;-80
2024/01/13 02:49:29;;;;;;;60.03;27.27;;;;;;;;;;10130745;29;20032;-80
2024/01/13 02:54:30;;;;;;;60.30;28.23;;;;;;;;;;10135057;29;20040;-80
2024/01/13 02:59:31;;;;;;;59.53;27.77;;;;;;;;;;10139000;29;20033;-83
2024/01/13 03:04:32;;;;;;;64.97;29.30;;;;;;;;;;10138834;29;20107;-84
2024/01/13 03:09:33;;;;;;;60.10;27.83;;;;;;;;;;10135929;29;20045;-85
2024/01/13 03:14:34;;;;;;;62.03;27.47;;;;;;;;;;10129323;29;20041;-83
2024/01/13 03:19:35;;;;;;;64.47;29.73;;;;;;;;;;10139834;29;20405;-83
2024/01/13 03:24:36;;;;;;;53.60;27.33;;;;;;;;;;10132627;29;20055;-83
2024/01/13 03:29:37;;;;;;;62.63;27.70;;;;;;;;;;10137528;29;20515;-83
2024/01/13 03:34:38;;;;;;;60.07;26.23;;;;;;;;;;10137626;23;20061;-81
2024/01/13 03:39:39;;;;;;;56.10;26.57;;;;;;;;;;10089185;29;20033;-82
2024/01/13 03:44:40;;;;;;;53.13;24.17;;;;;;;;;;10090031;29;20037;-83
2024/01/13 03:49:41;;;;;;;53.00;26.27;;;;;;;;;;10078526;29;20045;-84
2024/01/13 03:54:42;;;;;;;49.50;23.93;;;;;;;;;;10096428;29;20379;-84
2024/01/13 03:59:45;;;;;;;50.23;22.80;;;;;;;;;;10090517;29;20033;-84
2024/01/13 04:04:46;;;;;;;56.90;25.23;;;;;;;;;;10063579;29;20183;-82
2024/01/13 04:09:47;;;;;;;51.60;24.03;;;;;;;;;;10070534;29;20048;-85
2024/01/13 04:14:48;;;;;;;50.60;22.67;;;;;;;;;;10089804;29;20605;-82
2024/01/13 04:19:49;;;;;;;46.27;21.67;;;;;;;;;;10086127;29;20029;-84
2024/01/13 04:24:50;;;;;;;42.60;21.87;;;;;;;;;;10088116;29;20033;-82
2024/01/13 04:29:51;;;;;;;43.27;19.23;;;;;;;;;;10092150;29;20033;-85
2024/01/13 04:34:52;;;;;;;39.37;18.57;;;;;;;;;;10084526;29;20069;-83
2024/01/13 04:39:53;;;;;;;40.73;19.40;;;;;;;;;;10093047;29;20055;-81
2024/01/13 04:44:54;;;;;;;42.33;20.60;;;;;;;;;;10066791;29;20032;-83
2024/01/13 04:49:55;;;;;;;48.23;20.70;;;;;;;;;;10093635;29;20477;-82
2024/01/13 04:54:56;;;;;;;44.37;19.17;;;;;;;;;;10103923;29;20469;-83
2024/01/13 04:59:57;;;;;;;42.07;19.60;;;;;;;;;;10123432;29;20032;-84
2024/01/13 05:04:58;;;;;;;43.87;18.83;;;;;;;;;;10123941;29;20055;-84
2024/01/13 05:09:59;;;;;;;39.83;19.70;;;;;;;;;;10120296;29;20036;-84
2024/01/13 05:15:00;;;;;;;40.53;18.50;;;;;;;;;;10121146;29;20382;-86
2024/01/13 05:20:08;;;;;;;40.57;18.27;;;;;;;;;;10121347;29;20127;-82
2024/01/13 05:25:09;;;;;;;39.60;17.63;;;;;;;;;;10128178;29;20041;-86
2024/01/13 05:30:17;;;;;;;39.30;18.63;;;;;;;;;;10093498;29;20040;-87
2024/01/13 05:35:18;;;;;;;57.73;23.17;;;;;;;;;;10130376;29;20082;-85
2024/01/13 05:40:20;;;;;;;54.03;20.50;;;;;;;;;;10131673;29;20035;-84
2024/01/13 05:45:21;;;;;;;50.00;20.20;;;;;;;;;;10130411;29;20045;-87
2024/01/13 05:50:22;;;;;;;52.33;20.93;;;;;;;;;;10132052;29;20037;-85
2024/01/13 05:55:23;;;;;;;52.60;20.47;;;;;;;;;;10123104;29;20039;-81
2024/01/13 06:00:24;;;;;;;42.00;18.30;;;;;;;;;;10130004;29;20091;-81
2024/01/13 06:05:25;;;;;;;44.27;19.20;;;;;;;;;;10118618;29;20460;-81
2024/01/13 06:10:28;;;;;;;47.00;20.60;;;;;;;;;;10131127;29;20063;-82
2024/01/13 06:15:29;;;;;;;52.43;22.90;;;;;;;;;;10129304;29;20051;-82
2024/01/13 06:20:31;;;;;;;49.23;20.33;;;;;;;;;;10130624;29;20033;-81
2024/01/13 06:25:32;;;;;;;46.00;20.30;;;;;;;;;;10129534;29;20048;-81
2024/01/13 06:30:33;;;;;;;39.47;18.07;;;;;;;;;;10122356;29;20529;-80
2024/01/13 06:35:34;;;;;;;39.10;19.03;;;;;;;;;;10121799;29;20071;-82
2024/01/13 06:40:35;;;;;;;49.23;21.87;;;;;;;;;;10126395;29;20560;-82
2024/01/13 06:45:36;;;;;;;50.80;22.80;;;;;;;;;;10129318;29;20104;-85
2024/01/13 06:50:37;;;;;;;57.67;24.40;;;;;;;;;;10128643;29;20811;-83
2024/01/13 06:55:38;;;;;;;53.13;22.43;;;;;;;;;;10126428;29;20040;-84
2024/01/13 07:00:46;;;;;;;42.73;19.90;;;;;;;;;;10128013;29;20119;-83
2024/01/13 07:05:47;;;;;;;42.17;19.57;;;;;;;;;;10121517;29;20036;-84
2024/01/13 07:10:50;;;;;;;44.03;22.27;;;;;;;;;;10117441;29;20045;-82
2024/01/13 07:15:53;;;;;;;50.50;21.67;;;;;;;;;;10120633;29;20033;-84
2024/01/13 07:20:56;;;;;;;52.57;25.13;;;;;;;;;;10126524;29;20039;-84
2024/01/13 07:25:58;;;;;;;57.20;24.70;;;;;;;;;;10128481;29;20040;-86
2024/01/13 07:30:59;;;;;;;58.90;26.17;;;;;;;;;;10128715;29;20071;-83
2024/01/13 07:36:00;;;;;;;51.03;24.50;;;;;;;;;;10127503;29;20171;-83
2024/01/13 07:41:01;;;;;;;41.87;19.33;;;;;;;;;;10126982;29;20036;-84
2024/01/13 07:46:02;;;;;;;52.67;22.53;;;;;;;;;;10124815;29;20044;-81
2024/01/13 07:51:04;;;;;;;59.07;23.73;;;;;;;;;;10127241;29;20043;-87
2024/01/13 07:56:05;;;;;;;57.90;25.37;;;;;;;;;;10128581;29;20040;-84
2024/01/13 08:01:06;;;;;;;55.17;24.93;;;;;;;;;;10126688;29;20556;-83
2024/01/13 08:06:08;;;;;;;52.63;24.03;;;;;;;;;;10127860;29;20048;-84
2024/01/13 08:11:16;;;;;;;52.73;24.60;;;;;;;;;;10124985;29;20040;-85
2024/01/13 08:16:17;;;;;;;67.87;30.83;;;;;;;;;;10124395;29;20040;-82
2024/01/13 08:21:18;;;;;;;76.27;31.47;;;;;;;;;;10120296;29;20045;-84
2024/01/13 08:26:19;;;;;;;89.43;38.63;;;;;;;;;;10126066;29;20025;-83
2024/01/13 08:31:20;;;;;;;95.87;40.17;;;;;;;;;;10119129;29;20146;-84
2024/01/13 08:36:21;;;;;;;74.83;33.57;;;;;;;;;;10120990;29;20134;-83
2024/01/13 08:41:22;;;;;;;60.80;28.73;;;;;;;;;;10120563;29;20037;-88
2024/01/13 08:46:23;;;;;;;81.63;36.10;;;;;;;;;;10101126;29;20032;-84
2024/01/13 08:51:25;;;;;;;93.60;43.33;;;;;;;;;;10082146;29;20075;-87
2024/01/13 08:56:26;;;;;;;85.97;42.00;;;;;;;;;;10120044;29;20032;-84
2024/01/13 09:01:27;;;;;;;52.07;24.40;;;;;;;;;;10118289;29;20049;-84
2024/01/13 09:06:28;;;;;;;264.70;148.70;;;;;;;;;;10110498;29;20077;-88
2024/01/13 09:11:29;;;;;;;181.57;98.80;;;;;;;;;;10092603;29;20580;-85
2024/01/13 09:16:30;;;;;;;59.57;29.30;;;;;;;;;;10115972;29;20041;-85
2024/01/13 09:21:31;;;;;;;64.30;30.50;;;;;;;;;;10113197;29;20044;-84
2024/01/13 09:26:32;;;;;;;61.97;31.13;;;;;;;;;;10107933;29;20025;-83
2024/01/13 09:31:33;;;;;;;58.97;28.43;;;;;;;;;;10116999;29;20498;-83
2024/01/13 09:36:34;;;;;;;61.37;29.83;;;;;;;;;;10107861;29;20060;-83
2024/01/13 09:41:36;;;;;;;52.07;25.17;;;;;;;;;;10117339;29;20773;-84
2024/01/13 09:46:37;;;;;;;52.03;26.00;;;;;;;;;;10111159;29;20489;-80
2024/01/13 09:51:39;;;;;;;50.13;23.97;;;;;;;;;;10116753;29;20041;-82
2024/01/13 09:56:44;;;;;;;46.33;23.87;;;;;;;;;;10112001;29;20064;-82
2024/01/13 10:01:45;;;;;;;42.53;21.43;;;;;;;;;;10117905;29;20092;-83
2024/01/13 10:06:47;;;;;;;42.33;20.67;;;;;;;;;;10103659;23;20061;-82
2024/01/13 10:11:48;;;;;;;41.83;20.63;;;;;;;;;;10126705;29;20397;-81
2024/01/13 10:16:50;;;;;;;38.00;19.17;;;;;;;;;;10126856;29;20486;-82
2024/01/13 10:21:52;;;;;;;39.40;19.60;;;;;;;;;;10133502;29;20370;-82
2024/01/13 10:26:53;;;;;;;40.47;21.63;;;;;;;;;;10130682;29;20370;-81
2024/01/13 10:31:56;;;;;;;40.67;20.80;;;;;;;;;;10117764;29;20045;-82
2024/01/13 10:37:10;;;;;;;47.17;21.33;;;;;;;;;;10126966;29;20028;-82
2024/01/13 10:42:16;;;;;;;52.73;22.57;;;;;;;;;;10122549;29;20033;-81
2024/01/13 10:47:20;;;;;;;60.50;25.98;;;;;;;;;;10118740;29;20040;-80
2024/01/13 10:52:29;;;;;;;59.83;28.00;;;;;;;;;;10129287;29;20079;-78
2024/01/13 10:57:30;;;;;;;60.07;27.63;;;;;;;;;;10119502;29;20489;-78
2024/01/13 11:02:34;;;;;;;59.67;25.23;;;;;;;;;;10114146;29;20059;-79
2024/01/13 11:07:36;;;;;;;51.83;24.07;;;;;;;;;;10112700;29;20453;-79
2024/01/13 11:12:40;;;;;;;53.07;24.30;;;;;;;;;;10106010;29;20489;-80
2024/01/13 11:17:41;;;;;;;44.30;18.80;;;;;;;;;;10111764;23;20096;-79
2024/01/13 11:22:49;;;;;;;42.07;19.03;;;;;;;;;;10088034;29;20072;-82
2024/01/13 11:28:13;;;;;;;35.17;16.77;;;;;;;;;;10091792;29;20041;-80
2024/01/13 11:33:17;;;;;;;36.37;17.63;;;;;;;;;;10090450;29;20132;-80
2024/01/13 11:38:24;;;;;;;42.03;19.10;;;;;;;;;;10112705;29;20024;-79
2024/01/13 11:43:26;;;;;;;38.07;18.50;;;;;;;;;;10113868;29;20028;-79
2024/01/13 11:48:37;;;;;;;38.73;20.00;;;;;;;;;;10123646;29;20809;-79
2024/01/13 11:53:46;;;;;;;40.53;18.87;;;;;;;;;;10122557;29;20506;-81
2024/01/13 11:58:47;;;;;;;37.70;18.57;;;;;;;;;;10109670;29;20473;-80
2024/01/13 12:03:48;;;;;;;41.60;21.00;;;;;;;;;;10126932;29;20044;-80
2024/01/13 12:08:55;;;;;;;41.33;19.47;;;;;;;;;;10123017;29;20431;-80
2024/01/13 12:13:56;;;;;;;38.13;18.87;;;;;;;;;;10120765;29;20044;-81
2024/01/13 12:19:05;;;;;;;48.07;21.97;;;;;;;;;;10114787;29;20075;-81
2024/01/13 12:24:25;;;;;;;34.37;17.47;;;;;;;;;;10105657;29;20570;-81
2024/01/13 12:29:41;;;;;;;37.60;18.60;;;;;;;;;;10106808;29;20116;-82
2024/01/13 12:34:42;;;;;;;;;;;;;;;;;;10117978;29;20117;-84
2024/01/13 12:39:58;;;;;;;81.40;34.43;;;;;;;;;;10100868;29;19915;-82
2024/01/13 12:45:02;;;;;;;;;;;;;;;;;;10124977;29;20032;-79
2024/01/13 12:50:18;;;;;;;38.60;19.80;;;;;;;;;;10118940;29;20406;-82
2024/01/13 12:55:19;;;;;;;;;;;;;;;;;;10101045;29;20052;-79
2024/01/13 13:01:05;;;;;;;41.47;20.13;;;;;;;;;;10121597;29;19912;-83
2024/01/13 13:06:43;;;;;;;44.27;21.63;;;;;;;;;;10099847;29;20484;-81
2024/01/13 13:35:23;;;;;;;41.00;20.60;;;;;;;;;;10104884;29;20048;-82
2024/01/13 13:40:24;;;;;;;43.33;21.73;;;;;;;;;;10105034;29;20477;-86
2024/01/13 13:45:25;;;;;;;48.20;23.27;;;;;;;;;;10106349;29;20044;-85
2024/01/13 13:50:35;;;;;;;46.90;23.20;;;;;;;;;;10120739;29;20044;-81
2024/01/13 13:55:36;;;;;;;58.33;28.13;;;;;;;;;;10107189;29;20048;-80
2024/01/13 14:00:37;;;;;;;57.90;27.60;;;;;;;;;;10126039;29;20041;-80
2024/01/13 14:05:39;;;;;;;86.60;37.33;;;;;;;;;;10112789;29;20020;-80
2024/01/13 14:10:55;;;;;;;57.60;28.03;;;;;;;;;;10127842;29;20430;-81
2024/01/13 14:16:03;;;;;;;80.10;37.50;;;;;;;;;;10130412;29;20035;-78
2024/01/13 14:21:04;;;;;;;78.23;36.07;;;;;;;;;;10125512;29;20041;-79
2024/01/13 14:26:06;;;;;;;82.70;37.40;;;;;;;;;;10131253;29;20027;-79
2024/01/13 14:31:07;;;;;;;93.07;40.30;;;;;;;;;;10132162;29;20049;-80
2024/01/13 14:36:09;;;;;;;66.43;31.20;;;;;;;;;;10130268;29;20124;-81
2024/01/13 14:47:04;;;;;;;69.63;30.77;;;;;;;;;;10112915;29;20083;-82
2024/01/13 14:52:05;;;;;;;82.30;35.20;;;;;;;;;;10108770;24;20056;-79
2024/01/13 14:57:06;;;;;;;55.80;25.80;;;;;;;;;;10081987;29;20033;-81
2024/01/13 15:02:10;;;;;;;52.30;24.87;;;;;;;;;;10086373;29;20036;-79
2024/01/13 15:07:12;;;;;;;59.70;27.33;;;;;;;;;;10091277;29;20051;-78
2024/01/13 15:12:16;;;;;;;55.57;26.90;;;;;;;;;;10072630;29;20486;-80
2024/01/13 15:17:17;;;;;;;62.97;26.50;;;;;;;;;;10091085;29;20039;-79
2024/01/13 15:22:18;;;;;;;61.57;28.17;;;;;;;;;;10082755;29;20179;-79
2024/01/13 15:27:20;;;;;;;62.17;27.80;;;;;;;;;;10084825;29;20478;-79
2024/01/13 15:32:21;;;;;;;79.53;36.80;;;;;;;;;;10085093;29;20025;-79
2024/01/13 15:37:22;;;;;;;97.93;42.53;;;;;;;;;;10089039;29;20125;-78
2024/01/13 15:42:23;;;;;;;93.83;43.90;;;;;;;;;;10088105;29;20052;-78
2024/01/13 15:47:24;;;;;;;84.10;41.70;;;;;;;;;;10069172;29;20038;-79
2024/01/13 15:52:25;;;;;;;85.40;41.67;;;;;;;;;;10063894;29;20410;-81
2024/01/13 15:57:26;;;;;;;91.50;43.87;;;;;;;;;;10089350;29;20040;-80
2024/01/13 16:02:27;;;;;;;73.97;35.13;;;;;;;;;;10086313;29;20045;-79
2024/01/13 16:07:29;;;;;;;96.43;44.13;;;;;;;;;;10105062;29;20032;-79
2024/01/13 16:12:30;;;;;;;90.10;42.23;;;;;;;;;;10125427;29;20509;-78
2024/01/13 16:17:31;;;;;;;107.33;48.33;;;;;;;;;;10127908;29;20043;-81
2024/01/13 16:22:35;;;;;;;735.73;268.23;;;;;;;;;;10127930;29;20036;-79
2024/01/13 16:27:36;;;;;;;118.27;52.67;;;;;;;;;;10108055;29;20036;-79
2024/01/13 16:32:37;;;;;;;95.20;43.07;;;;;;;;;;10099413;29;20049;-78
2024/01/13 16:37:39;;;;;;;97.47;42.40;;;;;;;;;;10091649;29;20036;-80
2024/01/13 16:42:41;;;;;;;99.67;42.97;;;;;;;;;;10105028;29;20143;-81
2024/01/13 16:47:42;;;;;;;82.47;38.97;;;;;;;;;;10114363;29;20075;-81
2024/01/13 16:52:46;;;;;;;89.03;38.23;;;;;;;;;;10091028;29;20521;-82
2024/01/13 16:57:47;;;;;;;81.43;36.07;;;;;;;;;;10087084;29;20029;-79
2024/01/13 17:02:49;;;;;;;89.43;42.17;;;;;;;;;;10083476;29;20609;-78
2024/01/13 17:07:50;;;;;;;73.30;35.50;;;;;;;;;;10048829;29;20398;-79
2024/01/13 17:12:51;;;;;;;89.50;40.83;;;;;;;;;;10047037;29;20497;-79
2024/01/13 17:17:52;;;;;;;84.20;37.27;;;;;;;;;;10058546;29;20040;-78
2024/01/13 17:22:53;;;;;;;87.93;41.40;;;;;;;;;;10062708;29;20037;-79
2024/01/13 17:27:55;;;;;;;76.17;36.23;;;;;;;;;;10066857;29;20029;-78
2024/01/13 17:33:00;;;;;;;63.90;32.50;;;;;;;;;;10059741;29;20037;-78
2024/01/13 17:38:01;;;;;;;72.37;33.90;;;;;;;;;;10071361;29;20541;-80
2024/01/13 17:43:02;;;;;;;76.97;33.60;;;;;;;;;;10053320;29;20478;-79
2024/01/13 17:48:03;;;;;;;71.50;32.07;;;;;;;;;;10053909;29;20117;-79
2024/01/13 17:53:05;;;;;;;82.43;36.77;;;;;;;;;;10064669;29;20049;-81
2024/01/13 17:58:08;;;;;;;70.10;33.67;;;;;;;;;;10062853;29;20041;-80
2024/01/13 18:03:09;;;;;;;59.23;29.80;;;;;;;;;;10066410;29;20041;-79
2024/01/13 18:08:10;;;;;;;66.73;31.90;;;;;;;;;;10061552;29;20054;-79
2024/01/13 18:13:11;;;;;;;60.30;31.10;;;;;;;;;;10067570;29;20517;-79
2024/01/13 18:18:12;;;;;;;61.20;29.70;;;;;;;;;;10064200;29;20033;-78
2024/01/13 18:23:14;;;;;;;63.60;31.07;;;;;;;;;;10092195;29;20440;-80
2024/01/13 18:28:15;;;;;;;55.80;28.83;;;;;;;;;;10072711;29;20036;-78
2024/01/13 18:33:15;;;;;;;63.60;29.30;;;;;;;;;;10060579;29;20088;-82
2024/01/13 18:38:16;;;;;;;65.17;32.80;;;;;;;;;;10055387;29;20051;-79
2024/01/13 18:43:18;;;;;;;91.23;37.73;;;;;;;;;;10049902;29;20577;-79
2024/01/13 18:48:19;;;;;;;60.80;29.03;;;;;;;;;;10057222;29;20056;-81
2024/01/13 18:53:30;;;;;;;53.60;26.83;;;;;;;;;;10028464;29;20061;-77
2024/01/13 18:58:31;;;;;;;59.70;27.77;;;;;;;;;;10020697;29;20488;-79
2024/01/13 19:03:33;;;;;;;61.03;27.17;;;;;;;;;;10025881;29;20029;-79
2024/01/13 19:08:34;;;;;;;58.17;27.23;;;;;;;;;;10018991;29;20504;-80
2024/01/13 19:13:35;;;;;;;51.50;25.33;;;;;;;;;;10018189;29;20125;-81
2024/01/13 19:18:36;;;;;;;44.37;21.63;;;;;;;;;;10024319;29;20042;-78
2024/01/13 19:23:37;;;;;;;47.20;21.83;;;;;;;;;;10014906;29;20033;-82
2024/01/13 19:28:38;;;;;;;38.87;20.50;;;;;;;;;;10018654;29;20029;-82
2024/01/13 19:33:39;;;;;;;41.97;21.00;;;;;;;;;;10013924;29;20049;-81
2024/01/13 19:38:44;;;;;;;44.57;21.97;;;;;;;;;;10015543;29;20068;-80
2024/01/13 19:43:45;;;;;;;43.10;20.53;;;;;;;;;;10027122;29;20140;-78
2024/01/13 19:48:46;;;;;;;34.67;18.70;;;;;;;;;;10017457;29;20144;-78
2024/01/13 19:53:47;;;;;;;45.50;22.63;;;;;;;;;;10066506;29;20413;-81
2024/01/13 19:58:49;;;;;;;38.07;19.83;;;;;;;;;;10059073;29;20044;-79
2024/01/13 20:03:50;;;;;;;50.13;23.83;;;;;;;;;;10055667;29;20413;-83
2024/01/13 20:08:52;;;;;;;50.83;23.53;;;;;;;;;;10047323;29;20459;-82
2024/01/13 20:13:55;;;;;;;43.10;21.37;;;;;;;;;;10043935;29;20098;-79
2024/01/13 20:19:05;;;;;;;37.73;20.53;;;;;;;;;;10058857;29;20042;-80
2024/01/13 20:24:06;;;;;;;43.27;22.50;;;;;;;;;;10075316;29;20143;-80
2024/01/13 20:29:07;;;;;;;47.90;23.10;;;;;;;;;;10071317;29;20145;-78
2024/01/13 20:34:08;;;;;;;43.60;21.97;;;;;;;;;;10062938;29;20041;-80
2024/01/13 20:39:11;;;;;;;43.90;21.17;;;;;;;;;;10081335;29;21094;-80
2024/01/13 20:44:13;;;;;;;44.93;20.33;;;;;;;;;;10094933;24;20061;-79
2024/01/13 20:49:15;;;;;;;43.50;21.43;;;;;;;;;;10071183;29;20049;-84
2024/01/13 20:54:16;;;;;;;44.53;21.60;;;;;;;;;;10080696;29;20033;-81
2024/01/13 20:59:19;;;;;;;45.07;21.77;;;;;;;;;;10098869;29;20037;-80
2024/01/13 21:04:21;;;;;;;47.87;22.50;;;;;;;;;;10079094;29;20033;-80
2024/01/13 21:09:22;;;;;;;41.93;20.53;;;;;;;;;;10085937;29;20068;-83
2024/01/13 21:14:58;;;;;;;40.13;20.07;;;;;;;;;;10085956;29;20045;-80
2024/01/13 21:19:59;;;;;;;45.13;22.38;;;;;;;;;;10106139;29;20052;-80
2024/01/13 21:25:00;;;;;;;50.60;22.37;;;;;;;;;;10118327;29;20421;-80
2024/01/13 21:30:02;;;;;;;39.00;20.20;;;;;;;;;;10120949;29;20024;-79
2024/01/13 21:35:06;;;;;;;42.70;20.50;;;;;;;;;;10110360;29;20100;-81
2024/01/13 21:40:12;;;;;;;42.00;21.20;;;;;;;;;;10110830;29;20033;-82
2024/01/13 21:45:13;;;;;;;;;;;;;;;;;;10119714;29;20068;-80
2024/01/13 21:50:14;;;;;;;41.77;20.00;;;;;;;;;;10117987;29;19923;-81
2024/01/13 21:55:15;;;;;;;35.43;19.57;;;;;;;;;;10116368;29;20051;-80
2024/01/13 22:00:17;;;;;;;39.27;20.13;;;;;;;;;;10105497;29;20157;-79
2024/01/13 22:05:18;;;;;;;33.63;18.97;;;;;;;;;;10119210;29;20041;-83
2024/01/13 22:10:19;;;;;;;41.97;21.10;;;;;;;;;;10128536;29;20043;-82
2024/01/13 22:20:58;;;;;;;39.73;19.50;;;;;;;;;;10124027;29;20032;-80
2024/01/13 22:25:59;;;;;;;38.53;18.83;;;;;;;;;;10113667;29;20032;-80
2024/01/13 22:31:00;;;;;;;38.50;19.20;;;;;;;;;;10130670;29;20063;-82
2024/01/13 22:36:01;;;;;;;74.73;29.63;;;;;;;;;;10089305;23;20513;-80
2024/01/13 22:41:07;;;;;;;66.17;29.20;;;;;;;;;;10043647;29;20041;-82
2024/01/13 22:46:08;;;;;;;;;;;;;;;;;;10045464;29;20045;-80
2024/01/13 22:51:09;;;;;;;52.07;23.80;;;;;;;;;;10052122;29;19999;-85
2024/01/13 22:56:10;;;;;;;45.37;21.37;;;;;;;;;;10049975;29;20037;-81
2024/01/13 23:01:13;;;;;;;42.93;20.30;;;;;;;;;;10048620;29;20041;-80
2024/01/13 23:06:16;;;;;;;42.77;19.37;;;;;;;;;;10091047;29;20041;-80
2024/01/13 23:11:17;;;;;;;38.87;19.83;;;;;;;;;;10084664;29;20074;-81
2024/01/13 23:16:21;;;;;;;36.57;18.73;;;;;;;;;;10075308;29;20029;-81
2024/01/13 23:21:22;;;;;;;35.37;17.03;;;;;;;;;;10086699;29;20040;-81
2024/01/13 23:26:23;;;;;;;36.13;16.83;;;;;;;;;;10090964;29;20036;-81
2024/01/13 23:31:24;;;;;;;33.47;16.50;;;;;;;;;;10088303;29;20045;-81
2024/01/13 23:36:25;;;;;;;34.20;17.47;;;;;;;;;;10091769;29;20066;-83
2024/01/13 23:41:26;;;;;;;35.43;17.47;;;;;;;;;;10120365;29;20045;-83
2024/01/13 23:46:27;;;;;;;30.60;16.27;;;;;;;;;;10122242;29;20607;-80
2024/01/13 23:51:28;;;;;;;37.67;18.17;;;;;;;;;;10122410;29;20096;-83
2024/01/13 23:56:29;;;;;;;32.33;17.27;;;;;;;;;;10120750;29;20103;-84
